Ames, Iowa
Current Conditions -  °F | °C
As of 9:53 AM on Saturday 20 Dec 2014 (Local Time) from KAMW Reporting Station
Haze Haze  
Wind Chill: 31°   Ceiling: 1800
Heat Index: 31°   Visibility: 6mi
Dew Point: 28°   Wind: 3mph
Humidity: 89%   Direction: 130°SE
Pressure: 30.17"   Gusts: NA
Location:  42.03°N, 93.62°W
Report Text: KAMW 201553Z AUTO 13003KT 6SM BR OVC018 M01/M02 A3017 RMK AO2 SLP226 T10061022
Loading
Personal Weather Stations






























Interactive Weather Map New forecast layout! Learn more

10-Day Weather Forecast

Advertisements
Track Severe Weather on mobile